Killian, South Carolina
Current Conditions -  °F | °C
As of 3:00 PM on Saturday 20 Dec 2014 (Local Time) from KCUB Reporting Station
Overcast Overcast  
Wind Chill:   Ceiling: 1000
Heat Index:   Visibility: 8mi
Dew Point:   Wind: 5mph
Humidity: 80%   Direction: NA
Pressure: 30.19"   Gusts: NA
Location:  34.1179°N, 81.0612°W
Report Text: KCUB 202000Z AUTO VRB04KT 8SM OVC010 09/06 A3019 RMK AO2 T00940061
Loading
Personal Weather Stations






























Interactive Weather Map New forecast layout! Learn more

10-Day Weather Forecast

Advertisements
Track Severe Weather on mobile